M I D A S
Marine Information and Data Acquisition System
Tripno 1196 of the Zeeleeuw from 2006-11-27 08:23:47 to 2006-11-27 14:41:10
Back to CruiseResearch ActivitiesStationsMapUnderway DataData graphs

EquipmentUnitsComments
TimeDGPSUTC
LatitudeDGPSDM.mWGS84
LongitudeDGPSDM.mWGS84
SpeedMeteo Stationm/sRelative wind speed
DirectionMeteo StationdegRelative wind direction
TemperatureMeteo Stationdeg CelciusAir temperature
PressureMeteo StationPaAtmospheric pressure
HumidityMeteo Station%Relative humidity
Missing or incorrect values are displayed as -999
Metereological data collected by the RV Zeeleeuw from 2006-11-27 06:59:38 to 2006-11-27 14:41:10
Time Latitude Longitude Speed Direction Temperature Pressure Humidity
2006-11-27 07:00 51°13.598 2°56.095 3 351 9.1 101470 95
2006-11-27 07:01 51°13.598 2°56.094 5.2 354 9.2 101470 95
2006-11-27 07:02 51°13.598 2°56.093 3.7 284 9.2 101470 95
2006-11-27 07:03 51°13.599 2°56.093 4.2 1 9.2 101470 95
2006-11-27 07:04 51°13.598 2°56.094 3.1 287 9.2 101470 95
2006-11-27 07:05 51°13.599 2°56.094 3 278 9.2 101470 95
2006-11-27 07:06 51°13.599 2°56.094 3.6 349 9.2 101470 95
2006-11-27 07:07 51°13.599 2°56.094 4.1 343 9.3 101470 95
2006-11-27 07:08 51°13.599 2°56.095 3.4 344 9.3 101470 94
2006-11-27 07:09 51°13.599 2°56.094 4.6 285 9.3 101470 94
2006-11-27 07:10 51°13.599 2°56.094 3.8 342 9.3 101470 94
2006-11-27 07:11 51°13.599 2°56.094 3.8 349 9.3 101470 94
2006-11-27 07:12 51°13.598 2°56.094 3.4 279 9.3 101470 94
2006-11-27 07:13 51°13.599 2°56.094 3.8 339 9.4 101470 94
2006-11-27 07:14 51°13.598 2°56.094 3.8 349 9.4 101470 94
2006-11-27 07:15 51°13.598 2°56.094 3.1 358 9.4 101470 94
2006-11-27 07:16 51°13.599 2°56.094 3.9 8 9.4 101470 94
2006-11-27 07:17 51°13.598 2°56.094 2.7 344 9.5 101470 94
2006-11-27 07:18 51°13.598 2°56.095 2.9 346 9.5 101470 93
2006-11-27 07:19 51°13.599 2°56.095 3.4 359 9.5 101470 93
2006-11-27 07:20 51°13.599 2°56.094 2.6 288 9.5 101470 93
2006-11-27 07:21 51°13.598 2°56.095 2.5 347 9.5 101470 93
2006-11-27 07:22 51°13.598 2°56.095 3 335 9.5 101470 93
2006-11-27 07:23 51°13.599 2°56.095 2.8 1 9.5 101470 93
2006-11-27 07:24 51°13.599 2°56.095 3.8 351 9.5 101480 93
2006-11-27 07:25 51°13.599 2°56.095 3.8 357 9.5 101480 93
2006-11-27 07:26 51°13.599 2°56.094 2.4 285 9.5 101480 93
2006-11-27 07:27 51°13.599 2°56.094 4.3 350 9.5 101480 92
2006-11-27 07:28 51°13.598 2°56.093 3 347 9.5 101480 92
2006-11-27 07:29 51°13.598 2°56.093 2.6 356 9.5 101480 92
2006-11-27 07:30 51°13.598 2°56.093 2.6 280 9.5 101480 92
2006-11-27 07:31 51°13.597 2°56.092 2.8 340 9.5 101470 92
2006-11-27 07:32 51°13.596 2°56.092 2.5 348 9.5 101480 92
2006-11-27 07:33 51°13.596 2°56.092 2.6 353 9.6 101470 92
2006-11-27 07:34 51°13.597 2°56.092 2.1 359 9.6 101480 92
2006-11-27 07:35 51°13.597 2°56.092 3.5 354 9.6 101480 92
2006-11-27 07:36 51°13.597 2°56.093 2.3 358 9.6 101480 92
2006-11-27 07:37 51°13.597 2°56.093 3.2 328 9.6 101480 92
2006-11-27 07:38 51°13.597 2°56.092 3.4 344 9.6 101480 92
2006-11-27 07:39 51°13.598 2°56.093 3 281 9.6 101480 92
2006-11-27 07:40 51°13.598 2°56.094 4.3 3 9.6 101480 92
2006-11-27 07:41 51°13.598 2°56.094 3.5 351 9.6 101480 92
2006-11-27 07:42 51°13.598 2°56.095 3.5 350 9.6 101490 92
2006-11-27 07:43 51°13.598 2°56.095 3.1 348 9.6 101480 92
2006-11-27 07:44 51°13.599 2°56.096 3.3 354 9.6 101480 92
2006-11-27 07:45 51°13.599 2°56.095 3.7 357 9.6 101480 92
2006-11-27 07:46 51°13.599 2°56.094 2.9 350 9.7 101480 92
2006-11-27 07:47 51°13.599 2°56.094 5.7 280 9.7 101480 91
2006-11-27 07:48 51°13.599 2°56.094 4 349 9.7 101480 91
2006-11-27 07:49 51°13.599 2°56.095 5.4 354 9.8 101480 91
2006-11-27 07:50 51°13.599 2°56.095 5.1 357 9.8 101490 91
2006-11-27 07:51 51°13.598 2°56.093 3.1 350 9.8 101490 91
2006-11-27 07:52 51°13.599 2°56.093 3.6 352 9.9 101490 91
2006-11-27 07:53 51°13.599 2°56.094 3.8 357 9.8 101490 91
2006-11-27 07:54 51°13.599 2°56.095 3.8 285 9.9 101490 91
2006-11-27 07:55 51°13.598 2°56.095 3.9 342 9.9 101490 90
2006-11-27 07:56 51°13.599 2°56.095 4.9 352 9.9 101500 90
2006-11-27 07:57 51°13.598 2°56.095 4.5 349 10 101490 90
2006-11-27 07:58 51°13.598 2°56.095 3.8 353 10 101500 90
2006-11-27 07:59 51°13.598 2°56.095 -999 -999 -999 -999 -999
2006-11-27 08:00 51°13.598 2°56.095 3.6 351 10 101500 90
2006-11-27 08:01 51°13.598 2°56.095 3.9 279 10.1 101490 90
2006-11-27 08:02 51°13.599 2°56.095 3.9 358 10.1 101490 90
2006-11-27 08:03 51°13.599 2°56.095 4 279 10.1 101490 89
2006-11-27 08:04 51°13.599 2°56.096 3.7 354 10.1 101490 89
2006-11-27 08:05 51°13.601 2°56.099 5.6 348 10.1 101490 89
2006-11-27 08:06 51°13.6 2°56.097 2.7 356 10.2 101490 89
2006-11-27 08:07 51°13.598 2°56.095 4.9 357 10.2 101490 89
2006-11-27 08:08 51°13.6 2°56.095 5.2 282 10.2 101490 89
2006-11-27 08:09 51°13.6 2°56.095 4.5 283 10.2 101490 89
2006-11-27 08:10 51°13.599 2°56.094 3.4 352 10.2 101500 89
2006-11-27 08:11 51°13.599 2°56.094 3.7 280 10.3 101490 89
2006-11-27 08:12 51°13.599 2°56.094 2.8 279 10.3 101490 89
2006-11-27 08:13 51°13.599 2°56.095 5.3 349 10.3 101490 89
2006-11-27 08:14 51°13.596 2°56.095 3.8 6 10.3 101490 89
2006-11-27 08:15 51°13.596 2°56.095 4 280 10.4 101490 89
2006-11-27 08:16 51°13.594 2°56.095 4.3 286 10.4 101500 89
2006-11-27 08:17 51°13.595 2°56.096 3.1 280 10.4 101490 89
2006-11-27 08:18 51°13.599 2°56.097 4.5 350 10.4 101490 89
2006-11-27 08:19 51°13.6 2°56.097 5.6 350 10.4 101490 89
2006-11-27 08:20 51°13.597 2°56.096 4 280 10.4 101490 89
2006-11-27 08:21 51°13.598 2°56.097 4 351 10.5 101490 89
2006-11-27 08:22 51°13.599 2°56.097 5 359 10.5 101500 89
2006-11-27 08:23 51°13.597 2°56.096 3.8 355 10.5 101500 89
2006-11-27 08:24 51°13.598 2°56.089 5.4 359 10.6 101490 89
2006-11-27 08:25 51°13.618 2°56.02 3.1 1 10.6 101500 89
2006-11-27 08:26 51°13.653 2°55.898 4.5 25 10.6 101510 88
2006-11-27 08:27 51°13.704 2°55.76 3.8 4 10.7 101500 88
2006-11-27 08:28 51°13.723 2°55.723 5.5 13 10.7 101490 88
2006-11-27 08:29 51°13.723 2°55.713 5.1 38 10.8 101500 87
2006-11-27 08:30 51°13.737 2°55.697 3 80 10.8 101500 87
2006-11-27 08:31 51°13.835 2°55.634 1.5 73 10.9 101510 87
2006-11-27 08:32 51°13.94 2°55.556 2.5 78 11 101500 87
2006-11-27 08:33 51°14.037 2°55.49 2.8 74 11.1 101510 87
2006-11-27 08:34 51°14.131 2°55.418 2.6 78 11.2 101510 86
2006-11-27 08:35 51°14.252 2°55.284 3.3 282 11.2 101510 85
2006-11-27 08:36 51°14.367 2°55.074 6.5 281 11.1 101500 85
2006-11-27 08:37 51°14.503 2°54.894 2.7 281 11.1 101510 85
2006-11-27 08:38 51°14.62 2°54.772 2.5 80 11.1 101500 85
2006-11-27 08:39 51°14.774 2°54.644 6.9 283 11.1 101500 85
2006-11-27 08:40 51°14.95 2°54.455 4 285 11.2 101500 85
2006-11-27 08:41 51°15.138 2°54.266 2.3 281 11.2 101500 85
2006-11-27 08:42 51°15.336 2°54.084 2.8 284 11.2 101500 85
2006-11-27 08:43 51°15.536 2°53.896 3.3 284 11.2 101510 85
2006-11-27 08:44 51°15.737 2°53.704 3.5 281 11.2 101500 85
2006-11-27 08:45 51°15.942 2°53.516 4.2 281 11.2 101510 85
2006-11-27 08:46 51°16.147 2°53.332 6.1 80 11.2 101510 86
2006-11-27 08:47 51°16.352 2°53.15 4.2 78 11.2 101510 86
2006-11-27 08:48 51°16.56 2°52.979 4.5 281 11.3 101500 86
2006-11-27 08:49 51°16.767 2°52.812 4 287 11.3 101500 86
2006-11-27 08:50 51°16.976 2°52.663 2.7 285 11.3 101500 86
2006-11-27 08:51 51°17.199 2°52.558 3.9 80 11.3 101500 86
2006-11-27 08:52 51°17.424 2°52.466 3 81 11.3 101500 86
2006-11-27 08:53 51°17.656 2°52.441 2.2 75 11.3 101510 86
2006-11-27 08:54 51°17.883 2°52.495 3.3 37 11.4 101510 87
2006-11-27 08:55 51°18.096 2°52.631 6.9 25 11.4 101490 87
2006-11-27 08:56 51°18.268 2°52.868 7 23 11.4 101490 87
2006-11-27 08:57 51°18.439 2°53.107 7 24 11.4 101490 87
2006-11-27 08:58 51°18.615 2°53.34 8 23 11.4 101480 86
2006-11-27 08:59 51°18.792 2°53.567 7.9 18 11.4 101480 86
2006-11-27 09:00 51°18.968 2°53.797 7.7 17 11.5 101480 86
2006-11-27 09:01 51°19.146 2°54.021 7.4 23 11.5 101480 86
2006-11-27 09:02 51°19.322 2°54.249 7.1 10 11.5 101490 86
2006-11-27 09:03 51°19.5 2°54.474 7.1 21 11.5 101490 86
2006-11-27 09:04 51°19.676 2°54.702 6.7 14 11.5 101490 86
2006-11-27 09:05 51°19.855 2°54.924 8.2 22 11.5 101490 86
2006-11-27 09:06 51°20.028 2°55.154 7.7 20 11.5 101490 86
2006-11-27 09:07 51°20.205 2°55.383 7.7 20 11.5 101490 87
2006-11-27 09:08 51°20.384 2°55.607 6.4 13 11.5 101490 87
2006-11-27 09:09 51°20.546 2°55.861 7.4 16 11.4 101490 87
2006-11-27 09:10 51°20.705 2°56.118 6.9 13 11.5 101500 87
2006-11-27 09:11 51°20.871 2°56.366 7.1 20 11.4 101490 87
2006-11-27 09:12 51°21.034 2°56.617 7.7 18 11.4 101490 87
2006-11-27 09:13 51°21.198 2°56.868 7.9 10 11.4 101490 88
2006-11-27 09:14 51°21.335 2°57.07 7.3 20 11.4 101490 87
2006-11-27 14:25 51°13.599 2°56.095 5.2 347 13.9 101500 75
2006-11-27 14:26 51°13.6 2°56.095 5.2 350 13.9 101510 75
2006-11-27 14:27 51°13.601 2°56.096 6.1 1 13.9 101520 75
2006-11-27 14:31 51°13.6 2°56.096 3.8 10 13.8 101520 75
2006-11-27 14:32 51°13.6 2°56.095 3.3 11 13.8 101520 75
2006-11-27 14:33 51°13.6 2°56.095 4.7 9 13.8 101530 75
2006-11-27 14:34 51°13.6 2°56.095 3.5 5 13.8 101530 75
2006-11-27 14:35 51°13.6 2°56.095 4.3 345 13.8 101530 76
2006-11-27 14:36 51°13.601 2°56.094 3.1 351 13.8 101530 76
2006-11-27 14:37 51°13.601 2°56.094 3.8 356 13.8 101530 76
2006-11-27 14:38 51°13.601 2°56.094 4.3 7 13.8 101530 76
2006-11-27 14:39 51°13.601 2°56.093 3.1 4 13.7 101520 76
2006-11-27 14:40 51°13.6 2°56.094 3.7 354 13.8 101530 76